RPVP

Puerto Princesa Airport

Puerto Princesa City, Philippines
TAF RPVP 180500Z 1806/1906 27005KT 9999 FEW020 BKN240 TEMPO 1806/1812 12010KT FEW017CB FEW019 SCT080
Issued Valid From Valid To
Oct-18 @ 05:00 UTC
(7 hours ago)
Oct-18 @ 06:00 UTC
(6 hours ago)
Oct-19 @ 06:00 UTC
(in 18 hours)
Oct-18 @ 06:00 to Oct-19 @ 06:00
TAF RPVP 180500Z 1806/1906 27005KT 9999 FEW020 BKN240
Wind Visibility Clouds
270° at 5 knots 10,000+ meters
  • Few at 2,000' AGL
  • Broken at 24,000' AGL
Temporary Oct-18 @ 06:00 to Oct-18 @ 12:00
TEMPO 1806/1812 12010KT FEW017CB FEW019 SCT080
Wind Clouds
120° at 10 knots
  • Few at 1,700' AGL
  • Few at 1,900' AGL
  • Scattered at 8,000' AGL
TAF RPVP 180500Z 1806/1906 27005KT 9999 FEW020 BKN240 TEMPO 1806/1812 12010KT FEW017CB FEW019 SCT080
Issued Oct-18 @ 05:00 UTC
(7 hours ago)
Valid From Oct-18 @ 06:00 UTC
(6 hours ago)
Valid To Oct-19 @ 06:00 UTC
(in 18 hours)
Oct-18 @ 06:00 - Oct-19 @ 06:00
Wind Visibility
270° at 5 knots 10,000+ meters
Clouds
  • Few at 2,000' AGL
  • Broken at 24,000' AGL
Temporary Oct-18 @ 06:00 - Oct-18 @ 12:00
Wind
120° at 10 knots
Clouds
  • Few at 1,700' AGL
  • Few at 1,900' AGL
  • Scattered at 8,000' AGL